sensor_id;sensor_type;location;lat;lon;timestamp;P1;durP1;ratioP1;P2;durP2;ratioP2
75496;SDS011;64074;47.540;19.072;2023-08-12T00:01:09;13.43;;;8.30;;
75496;SDS011;64074;47.540;19.072;2023-08-12T00:04:13;13.85;;;8.25;;
75496;SDS011;64074;47.540;19.072;2023-08-12T00:07:17;12.17;;;8.07;;
75496;SDS011;64074;47.540;19.072;2023-08-12T00:10:21;8.88;;;7.50;;
75496;SDS011;64074;47.540;19.072;2023-08-12T00:13:25;10.15;;;7.70;;
75496;SDS011;64074;47.540;19.072;2023-08-12T00:16:28;13.02;;;7.38;;
75496;SDS011;64074;47.540;19.072;2023-08-12T00:19:31;10.50;;;8.18;;
75496;SDS011;64074;47.540;19.072;2023-08-12T00:22:34;21.13;;;9.03;;
75496;SDS011;64074;47.540;19.072;2023-08-12T00:25:37;11.32;;;7.97;;
75496;SDS011;64074;47.540;19.072;2023-08-12T00:28:40;11.30;;;8.18;;
75496;SDS011;64074;47.540;19.072;2023-08-12T00:31:44;14.68;;;7.70;;
75496;SDS011;64074;47.540;19.072;2023-08-12T00:34:47;11.75;;;7.80;;
75496;SDS011;64074;47.540;19.072;2023-08-12T00:37:50;13.53;;;7.90;;
75496;SDS011;64074;47.540;19.072;2023-08-12T00:40:53;13.60;;;8.20;;
75496;SDS011;64074;47.540;19.072;2023-08-12T00:43:56;13.07;;;8.13;;
75496;SDS011;64074;47.540;19.072;2023-08-12T00:46:59;13.43;;;7.90;;
75496;SDS011;64074;47.540;19.072;2023-08-12T00:50:04;14.80;;;7.75;;
75496;SDS011;64074;47.540;19.072;2023-08-12T00:53:09;12.43;;;7.60;;
75496;SDS011;64074;47.540;19.072;2023-08-12T00:56:13;19.55;;;8.20;;
75496;SDS011;64074;47.540;19.072;2023-08-12T00:59:17;15.68;;;8.82;;
75496;SDS011;64074;47.540;19.072;2023-08-12T01:02:22;12.68;;;8.07;;
75496;SDS011;64074;47.540;19.072;2023-08-12T01:05:25;13.82;;;9.00;;
75496;SDS011;64074;47.540;19.072;2023-08-12T01:08:30;14.73;;;8.33;;
75496;SDS011;64074;47.540;19.072;2023-08-12T01:15:07;13.18;;;8.30;;
75496;SDS011;64074;47.540;19.072;2023-08-12T01:18:13;10.95;;;7.60;;
75496;SDS011;64074;47.540;19.072;2023-08-12T01:21:17;11.07;;;7.75;;
75496;SDS011;64074;47.540;19.072;2023-08-12T01:24:25;9.57;;;6.67;;
75496;SDS011;64074;47.540;19.072;2023-08-12T01:27:28;9.98;;;7.88;;
75496;SDS011;64074;47.540;19.072;2023-08-12T01:30:32;11.18;;;7.85;;
75496;SDS011;64074;47.540;19.072;2023-08-12T01:33:46;11.93;;;7.50;;
75496;SDS011;64074;47.540;19.072;2023-08-12T01:36:56;11.90;;;7.85;;
75496;SDS011;64074;47.540;19.072;2023-08-12T01:40:02;10.27;;;7.37;;
75496;SDS011;64074;47.540;19.072;2023-08-12T01:43:07;10.77;;;7.50;;
75496;SDS011;64074;47.540;19.072;2023-08-12T01:46:11;9.45;;;6.88;;
75496;SDS011;64074;47.540;19.072;2023-08-12T01:49:15;10.07;;;6.78;;
75496;SDS011;64074;47.540;19.072;2023-08-12T01:52:19;7.80;;;5.90;;
75496;SDS011;64074;47.540;19.072;2023-08-12T01:55:22;9.17;;;5.87;;
75496;SDS011;64074;47.540;19.072;2023-08-12T01:58:25;7.68;;;5.45;;
75496;SDS011;64074;47.540;19.072;2023-08-12T02:01:32;7.15;;;5.65;;
75496;SDS011;64074;47.540;19.072;2023-08-12T02:04:36;7.05;;;5.45;;
75496;SDS011;64074;47.540;19.072;2023-08-12T02:07:40;7.75;;;5.68;;
75496;SDS011;64074;47.540;19.072;2023-08-12T02:10:44;6.33;;;4.93;;
75496;SDS011;64074;47.540;19.072;2023-08-12T02:13:47;7.93;;;5.22;;
75496;SDS011;64074;47.540;19.072;2023-08-12T02:16:50;6.07;;;5.22;;
75496;SDS011;64074;47.540;19.072;2023-08-12T02:19:54;6.95;;;5.25;;
75496;SDS011;64074;47.540;19.072;2023-08-12T02:22:57;7.43;;;5.53;;
75496;SDS011;64074;47.540;19.072;2023-08-12T02:26:01;8.87;;;5.33;;
75496;SDS011;64074;47.540;19.072;2023-08-12T02:29:05;7.63;;;5.47;;
75496;SDS011;64074;47.540;19.072;2023-08-12T02:32:08;8.57;;;5.95;;
75496;SDS011;64074;47.540;19.072;2023-08-12T02:35:11;9.73;;;5.30;;
75496;SDS011;64074;47.540;19.072;2023-08-12T02:38:15;7.85;;;5.43;;
75496;SDS011;64074;47.540;19.072;2023-08-12T02:41:18;12.57;;;5.43;;
75496;SDS011;64074;47.540;19.072;2023-08-12T02:44:21;7.22;;;5.43;;
75496;SDS011;64074;47.540;19.072;2023-08-12T02:47:25;7.50;;;5.60;;
75496;SDS011;64074;47.540;19.072;2023-08-12T02:50:29;7.25;;;5.47;;
75496;SDS011;64074;47.540;19.072;2023-08-12T02:53:33;7.63;;;5.65;;
75496;SDS011;64074;47.540;19.072;2023-08-12T02:56:36;6.77;;;5.20;;
75496;SDS011;64074;47.540;19.072;2023-08-12T02:59:40;8.35;;;5.68;;
75496;SDS011;64074;47.540;19.072;2023-08-12T03:02:43;10.02;;;5.72;;
75496;SDS011;64074;47.540;19.072;2023-08-12T03:05:48;6.93;;;5.28;;
75496;SDS011;64074;47.540;19.072;2023-08-12T03:08:51;8.30;;;5.70;;
75496;SDS011;64074;47.540;19.072;2023-08-12T03:11:54;9.37;;;5.67;;
75496;SDS011;64074;47.540;19.072;2023-08-12T03:14:59;7.05;;;5.28;;
75496;SDS011;64074;47.540;19.072;2023-08-12T03:18:02;11.43;;;5.90;;
75496;SDS011;64074;47.540;19.072;2023-08-12T03:21:09;6.13;;;5.00;;
75496;SDS011;64074;47.540;19.072;2023-08-12T03:24:14;8.02;;;5.50;;
75496;SDS011;64074;47.540;19.072;2023-08-12T03:27:18;6.27;;;5.33;;
75496;SDS011;64074;47.540;19.072;2023-08-12T03:30:21;6.65;;;5.70;;
75496;SDS011;64074;47.540;19.072;2023-08-12T03:33:25;10.73;;;6.57;;
75496;SDS011;64074;47.540;19.072;2023-08-12T03:36:30;8.77;;;6.57;;
75496;SDS011;64074;47.540;19.072;2023-08-12T03:39:33;9.10;;;6.95;;
75496;SDS011;64074;47.540;19.072;2023-08-12T03:42:36;10.67;;;8.40;;
75496;SDS011;64074;47.540;19.072;2023-08-12T03:45:40;12.30;;;9.18;;
75496;SDS011;64074;47.540;19.072;2023-08-12T03:48:48;14.32;;;9.50;;
75496;SDS011;64074;47.540;19.072;2023-08-12T03:51:52;11.25;;;8.30;;
75496;SDS011;64074;47.540;19.072;2023-08-12T03:54:55;8.75;;;7.53;;
75496;SDS011;64074;47.540;19.072;2023-08-12T03:57:59;7.93;;;6.30;;
75496;SDS011;64074;47.540;19.072;2023-08-12T04:01:05;10.68;;;6.82;;
75496;SDS011;64074;47.540;19.072;2023-08-12T04:04:09;8.73;;;6.72;;
75496;SDS011;64074;47.540;19.072;2023-08-12T04:07:15;8.32;;;6.63;;
75496;SDS011;64074;47.540;19.072;2023-08-12T04:10:19;16.45;;;11.40;;
75496;SDS011;64074;47.540;19.072;2023-08-12T04:13:22;16.00;;;10.90;;
75496;SDS011;64074;47.540;19.072;2023-08-12T04:16:26;16.27;;;9.48;;
75496;SDS011;64074;47.540;19.072;2023-08-12T04:19:29;12.48;;;8.85;;
75496;SDS011;64074;47.540;19.072;2023-08-12T04:22:32;14.07;;;9.05;;
75496;SDS011;64074;47.540;19.072;2023-08-12T04:25:36;17.15;;;9.85;;
75496;SDS011;64074;47.540;19.072;2023-08-12T04:28:40;17.60;;;8.20;;
75496;SDS011;64074;47.540;19.072;2023-08-12T04:31:44;13.00;;;7.10;;
75496;SDS011;64074;47.540;19.072;2023-08-12T04:34:47;7.40;;;6.22;;
75496;SDS011;64074;47.540;19.072;2023-08-12T04:37:50;7.20;;;6.00;;
75496;SDS011;64074;47.540;19.072;2023-08-12T04:40:53;12.60;;;5.95;;
75496;SDS011;64074;47.540;19.072;2023-08-12T04:43:57;6.57;;;5.50;;
75496;SDS011;64074;47.540;19.072;2023-08-12T04:47:04;8.45;;;5.93;;
75496;SDS011;64074;47.540;19.072;2023-08-12T04:50:11;9.57;;;6.40;;
75496;SDS011;64074;47.540;19.072;2023-08-12T04:53:15;8.88;;;6.32;;
75496;SDS011;64074;47.540;19.072;2023-08-12T04:56:18;8.77;;;5.90;;
75496;SDS011;64074;47.540;19.072;2023-08-12T04:59:21;9.37;;;6.00;;
75496;SDS011;64074;47.540;19.072;2023-08-12T05:02:25;7.03;;;5.53;;
75496;SDS011;64074;47.540;19.072;2023-08-12T05:05:30;9.30;;;5.70;;
75496;SDS011;64074;47.540;19.072;2023-08-12T05:08:33;6.53;;;5.15;;
75496;SDS011;64074;47.540;19.072;2023-08-12T05:11:36;6.05;;;5.38;;
75496;SDS011;64074;47.540;19.072;2023-08-12T05:14:39;10.03;;;5.37;;
75496;SDS011;64074;47.540;19.072;2023-08-12T05:17:43;7.60;;;5.38;;
75496;SDS011;64074;47.540;19.072;2023-08-12T05:20:51;8.85;;;5.43;;
75496;SDS011;64074;47.540;19.072;2023-08-12T05:23:54;7.70;;;5.40;;
75496;SDS011;64074;47.540;19.072;2023-08-12T05:26:58;5.82;;;4.97;;
75496;SDS011;64074;47.540;19.072;2023-08-12T05:30:02;6.70;;;5.13;;
75496;SDS011;64074;47.540;19.072;2023-08-12T05:33:05;6.10;;;4.97;;
75496;SDS011;64074;47.540;19.072;2023-08-12T05:36:09;5.93;;;4.65;;
75496;SDS011;64074;47.540;19.072;2023-08-12T05:39:13;5.18;;;4.50;;
75496;SDS011;64074;47.540;19.072;2023-08-12T05:42:18;6.38;;;5.07;;
75496;SDS011;64074;47.540;19.072;2023-08-12T05:45:20;6.60;;;4.73;;
75496;SDS011;64074;47.540;19.072;2023-08-12T05:48:23;5.38;;;4.40;;
75496;SDS011;64074;47.540;19.072;2023-08-12T05:51:26;7.32;;;4.75;;
75496;SDS011;64074;47.540;19.072;2023-08-12T05:54:32;6.00;;;4.70;;
75496;SDS011;64074;47.540;19.072;2023-08-12T05:57:36;6.18;;;4.60;;
75496;SDS011;64074;47.540;19.072;2023-08-12T06:00:39;6.00;;;4.40;;
75496;SDS011;64074;47.540;19.072;2023-08-12T06:03:43;5.72;;;4.03;;
75496;SDS011;64074;47.540;19.072;2023-08-12T06:06:46;6.60;;;4.65;;
75496;SDS011;64074;47.540;19.072;2023-08-12T06:09:49;7.60;;;4.40;;
75496;SDS011;64074;47.540;19.072;2023-08-12T06:12:53;5.10;;;4.60;;
75496;SDS011;64074;47.540;19.072;2023-08-12T06:15:56;6.00;;;4.30;;
75496;SDS011;64074;47.540;19.072;2023-08-12T06:19:00;10.20;;;4.75;;
75496;SDS011;64074;47.540;19.072;2023-08-12T06:22:03;13.48;;;5.05;;
75496;SDS011;64074;47.540;19.072;2023-08-12T06:25:07;6.43;;;4.85;;
75496;SDS011;64074;47.540;19.072;2023-08-12T06:28:11;9.50;;;4.68;;
75496;SDS011;64074;47.540;19.072;2023-08-12T06:31:14;4.70;;;4.17;;
75496;SDS011;64074;47.540;19.072;2023-08-12T06:34:18;13.57;;;4.80;;
75496;SDS011;64074;47.540;19.072;2023-08-12T06:37:21;6.75;;;4.45;;
75496;SDS011;64074;47.540;19.072;2023-08-12T06:40:24;5.85;;;4.47;;
75496;SDS011;64074;47.540;19.072;2023-08-12T06:43:29;6.80;;;3.80;;
75496;SDS011;64074;47.540;19.072;2023-08-12T06:46:33;5.43;;;4.03;;
75496;SDS011;64074;47.540;19.072;2023-08-12T06:49:36;5.10;;;4.10;;
75496;SDS011;64074;47.540;19.072;2023-08-12T06:52:40;7.25;;;4.45;;
75496;SDS011;64074;47.540;19.072;2023-08-12T06:55:45;4.38;;;3.70;;
75496;SDS011;64074;47.540;19.072;2023-08-12T06:58:49;4.93;;;4.18;;
75496;SDS011;64074;47.540;19.072;2023-08-12T07:01:52;4.60;;;3.80;;
75496;SDS011;64074;47.540;19.072;2023-08-12T07:04:55;4.28;;;3.88;;
75496;SDS011;64074;47.540;19.072;2023-08-12T07:07:59;6.85;;;4.18;;
75496;SDS011;64074;47.540;19.072;2023-08-12T07:11:02;6.00;;;4.30;;
75496;SDS011;64074;47.540;19.072;2023-08-12T07:14:07;6.75;;;4.00;;
75496;SDS011;64074;47.540;19.072;2023-08-12T07:17:10;4.60;;;4.17;;
75496;SDS011;64074;47.540;19.072;2023-08-12T07:20:15;6.68;;;4.10;;
75496;SDS011;64074;47.540;19.072;2023-08-12T07:23:18;5.40;;;4.07;;
75496;SDS011;64074;47.540;19.072;2023-08-12T07:26:21;4.72;;;4.22;;
75496;SDS011;64074;47.540;19.072;2023-08-12T07:29:24;6.63;;;4.28;;
75496;SDS011;64074;47.540;19.072;2023-08-12T07:32:28;5.13;;;3.73;;
75496;SDS011;64074;47.540;19.072;2023-08-12T07:35:31;6.22;;;3.90;;
75496;SDS011;64074;47.540;19.072;2023-08-12T07:38:35;6.60;;;4.28;;
75496;SDS011;64074;47.540;19.072;2023-08-12T07:41:38;5.93;;;4.20;;
75496;SDS011;64074;47.540;19.072;2023-08-12T07:44:42;4.82;;;4.32;;
75496;SDS011;64074;47.540;19.072;2023-08-12T07:47:45;5.13;;;4.07;;
75496;SDS011;64074;47.540;19.072;2023-08-12T07:50:54;6.15;;;4.10;;
75496;SDS011;64074;47.540;19.072;2023-08-12T07:54:01;5.18;;;4.03;;
75496;SDS011;64074;47.540;19.072;2023-08-12T07:57:04;5.22;;;3.97;;
75496;SDS011;64074;47.540;19.072;2023-08-12T08:00:08;4.22;;;3.83;;
75496;SDS011;64074;47.540;19.072;2023-08-12T08:03:13;4.50;;;3.60;;
75496;SDS011;64074;47.540;19.072;2023-08-12T08:06:16;6.07;;;3.90;;
75496;SDS011;64074;47.540;19.072;2023-08-12T08:09:19;5.97;;;3.45;;
75496;SDS011;64074;47.540;19.072;2023-08-12T08:12:22;4.65;;;3.45;;
75496;SDS011;64074;47.540;19.072;2023-08-12T08:15:25;7.35;;;3.33;;
75496;SDS011;64074;47.540;19.072;2023-08-12T08:18:29;5.07;;;3.80;;
75496;SDS011;64074;47.540;19.072;2023-08-12T08:21:34;5.38;;;3.50;;
75496;SDS011;64074;47.540;19.072;2023-08-12T08:24:38;6.95;;;4.10;;
75496;SDS011;64074;47.540;19.072;2023-08-12T08:27:41;5.82;;;3.75;;
75496;SDS011;64074;47.540;19.072;2023-08-12T08:30:46;5.57;;;3.40;;
75496;SDS011;64074;47.540;19.072;2023-08-12T08:33:49;7.07;;;3.40;;
75496;SDS011;64074;47.540;19.072;2023-08-12T08:36:52;4.82;;;3.30;;
75496;SDS011;64074;47.540;19.072;2023-08-12T08:39:57;5.10;;;3.70;;
75496;SDS011;64074;47.540;19.072;2023-08-12T08:43:01;4.80;;;3.60;;
75496;SDS011;64074;47.540;19.072;2023-08-12T08:46:09;4.93;;;3.80;;
75496;SDS011;64074;47.540;19.072;2023-08-12T08:49:18;3.70;;;3.37;;
75496;SDS011;64074;47.540;19.072;2023-08-12T08:52:23;5.22;;;3.50;;
75496;SDS011;64074;47.540;19.072;2023-08-12T08:55:27;5.63;;;4.00;;
75496;SDS011;64074;47.540;19.072;2023-08-12T08:58:30;5.60;;;3.47;;
75496;SDS011;64074;47.540;19.072;2023-08-12T09:01:34;4.85;;;3.65;;
75496;SDS011;64074;47.540;19.072;2023-08-12T09:04:39;7.10;;;3.70;;
75496;SDS011;64074;47.540;19.072;2023-08-12T09:07:43;5.85;;;3.30;;
75496;SDS011;64074;47.540;19.072;2023-08-12T09:10:48;4.35;;;3.30;;
75496;SDS011;64074;47.540;19.072;2023-08-12T09:13:52;5.45;;;3.30;;
75496;SDS011;64074;47.540;19.072;2023-08-12T09:16:55;8.50;;;3.55;;
75496;SDS011;64074;47.540;19.072;2023-08-12T09:20:00;4.03;;;3.33;;
75496;SDS011;64074;47.540;19.072;2023-08-12T09:23:04;4.63;;;3.30;;
75496;SDS011;64074;47.540;19.072;2023-08-12T09:26:15;7.93;;;3.65;;
75496;SDS011;64074;47.540;19.072;2023-08-12T09:29:23;6.25;;;4.00;;
75496;SDS011;64074;47.540;19.072;2023-08-12T09:32:29;3.92;;;3.53;;
75496;SDS011;64074;47.540;19.072;2023-08-12T09:35:34;5.47;;;3.43;;
75496;SDS011;64074;47.540;19.072;2023-08-12T09:38:42;5.03;;;3.50;;
75496;SDS011;64074;47.540;19.072;2023-08-12T09:41:46;4.85;;;3.83;;
75496;SDS011;64074;47.540;19.072;2023-08-12T09:44:49;5.18;;;3.30;;
75496;SDS011;64074;47.540;19.072;2023-08-12T09:47:55;4.30;;;3.60;;
75496;SDS011;64074;47.540;19.072;2023-08-12T09:50:58;4.17;;;3.47;;
75496;SDS011;64074;47.540;19.072;2023-08-12T09:54:01;6.90;;;3.60;;
75496;SDS011;64074;47.540;19.072;2023-08-12T09:57:05;4.30;;;3.90;;
75496;SDS011;64074;47.540;19.072;2023-08-12T10:00:12;3.35;;;3.05;;
75496;SDS011;64074;47.540;19.072;2023-08-12T10:03:20;3.63;;;3.17;;
75496;SDS011;64074;47.540;19.072;2023-08-12T10:06:24;3.70;;;3.30;;
75496;SDS011;64074;47.540;19.072;2023-08-12T10:09:28;3.65;;;3.22;;
75496;SDS011;64074;47.540;19.072;2023-08-12T10:12:32;4.25;;;3.42;;
75496;SDS011;64074;47.540;19.072;2023-08-12T10:15:37;5.28;;;3.70;;
75496;SDS011;64074;47.540;19.072;2023-08-12T10:18:41;3.88;;;3.58;;
75496;SDS011;64074;47.540;19.072;2023-08-12T10:21:45;3.93;;;3.53;;
75496;SDS011;64074;47.540;19.072;2023-08-12T10:24:49;4.68;;;4.28;;
75496;SDS011;64074;47.540;19.072;2023-08-12T10:27:53;4.28;;;3.85;;
75496;SDS011;64074;47.540;19.072;2023-08-12T10:30:56;4.38;;;2.83;;
75496;SDS011;64074;47.540;19.072;2023-08-12T10:34:01;3.72;;;3.20;;
75496;SDS011;64074;47.540;19.072;2023-08-12T10:37:05;4.30;;;3.90;;
75496;SDS011;64074;47.540;19.072;2023-08-12T10:40:19;5.90;;;3.28;;
75496;SDS011;64074;47.540;19.072;2023-08-12T10:43:24;3.30;;;3.00;;
75496;SDS011;64074;47.540;19.072;2023-08-12T10:46:30;5.15;;;3.60;;
75496;SDS011;64074;47.540;19.072;2023-08-12T10:49:38;4.25;;;3.80;;
75496;SDS011;64074;47.540;19.072;2023-08-12T10:52:45;3.27;;;2.80;;
75496;SDS011;64074;47.540;19.072;2023-08-12T10:55:50;3.60;;;3.30;;
75496;SDS011;64074;47.540;19.072;2023-08-12T10:58:56;4.93;;;3.22;;
75496;SDS011;64074;47.540;19.072;2023-08-12T11:02:19;3.25;;;2.85;;
75496;SDS011;64074;47.540;19.072;2023-08-12T11:05:36;3.55;;;3.22;;
75496;SDS011;64074;47.540;19.072;2023-08-12T11:08:46;3.20;;;2.60;;
75496;SDS011;64074;47.540;19.072;2023-08-12T11:11:56;2.97;;;2.67;;
75496;SDS011;64074;47.540;19.072;2023-08-12T11:15:03;3.13;;;2.83;;
75496;SDS011;64074;47.540;19.072;2023-08-12T11:18:10;2.97;;;2.65;;
75496;SDS011;64074;47.540;19.072;2023-08-12T11:21:16;3.20;;;2.90;;
75496;SDS011;64074;47.540;19.072;2023-08-12T11:24:24;4.03;;;2.80;;
75496;SDS011;64074;47.540;19.072;2023-08-12T11:27:28;4.15;;;3.10;;
75496;SDS011;64074;47.540;19.072;2023-08-12T11:30:32;3.72;;;3.25;;
75496;SDS011;64074;47.540;19.072;2023-08-12T11:33:38;2.97;;;2.78;;
75496;SDS011;64074;47.540;19.072;2023-08-12T11:36:42;3.40;;;3.10;;
75496;SDS011;64074;47.540;19.072;2023-08-12T11:39:45;3.67;;;3.00;;
75496;SDS011;64074;47.540;19.072;2023-08-12T11:42:49;3.97;;;3.28;;
75496;SDS011;64074;47.540;19.072;2023-08-12T11:45:54;4.07;;;3.47;;
75496;SDS011;64074;47.540;19.072;2023-08-12T11:48:59;7.13;;;3.35;;
75496;SDS011;64074;47.540;19.072;2023-08-12T11:52:02;5.38;;;3.03;;
75496;SDS011;64074;47.540;19.072;2023-08-12T11:55:06;4.07;;;3.27;;
75496;SDS011;64074;47.540;19.072;2023-08-12T11:58:11;6.10;;;3.28;;
75496;SDS011;64074;47.540;19.072;2023-08-12T12:01:17;4.50;;;3.45;;
75496;SDS011;64074;47.540;19.072;2023-08-12T12:04:21;3.42;;;3.10;;
75496;SDS011;64074;47.540;19.072;2023-08-12T12:07:25;4.05;;;3.20;;
75496;SDS011;64074;47.540;19.072;2023-08-12T12:10:30;3.97;;;3.00;;
75496;SDS011;64074;47.540;19.072;2023-08-12T12:13:36;4.10;;;3.80;;
75496;SDS011;64074;47.540;19.072;2023-08-12T12:16:40;3.85;;;3.53;;
75496;SDS011;64074;47.540;19.072;2023-08-12T12:19:44;3.78;;;3.15;;
75496;SDS011;64074;47.540;19.072;2023-08-12T12:22:47;3.92;;;3.63;;
75496;SDS011;64074;47.540;19.072;2023-08-12T12:25:56;5.90;;;3.57;;
75496;SDS011;64074;47.540;19.072;2023-08-12T12:29:04;4.15;;;3.63;;
75496;SDS011;64074;47.540;19.072;2023-08-12T12:32:09;6.22;;;3.10;;
75496;SDS011;64074;47.540;19.072;2023-08-12T12:35:13;4.13;;;3.55;;
75496;SDS011;64074;47.540;19.072;2023-08-12T12:38:16;4.35;;;3.50;;
75496;SDS011;64074;47.540;19.072;2023-08-12T12:41:20;3.70;;;3.40;;
75496;SDS011;64074;47.540;19.072;2023-08-12T12:44:24;4.10;;;3.75;;
75496;SDS011;64074;47.540;19.072;2023-08-12T12:47:27;3.90;;;3.45;;
75496;SDS011;64074;47.540;19.072;2023-08-12T12:50:30;4.63;;;3.70;;
75496;SDS011;64074;47.540;19.072;2023-08-12T12:53:33;4.28;;;3.83;;
75496;SDS011;64074;47.540;19.072;2023-08-12T12:56:36;3.63;;;3.37;;
75496;SDS011;64074;47.540;19.072;2023-08-12T12:59:40;4.32;;;3.47;;
75496;SDS011;64074;47.540;19.072;2023-08-12T13:02:44;4.38;;;3.42;;
75496;SDS011;64074;47.540;19.072;2023-08-12T13:05:49;4.13;;;3.45;;
75496;SDS011;64074;47.540;19.072;2023-08-12T13:08:53;4.10;;;3.70;;
75496;SDS011;64074;47.540;19.072;2023-08-12T13:11:56;5.63;;;3.60;;
75496;SDS011;64074;47.540;19.072;2023-08-12T13:15:00;3.92;;;3.63;;
75496;SDS011;64074;47.540;19.072;2023-08-12T13:18:04;5.45;;;4.07;;
75496;SDS011;64074;47.540;19.072;2023-08-12T13:21:08;4.68;;;3.95;;
75496;SDS011;64074;47.540;19.072;2023-08-12T13:24:11;5.95;;;4.10;;
75496;SDS011;64074;47.540;19.072;2023-08-12T13:27:14;7.10;;;3.80;;
75496;SDS011;64074;47.540;19.072;2023-08-12T13:30:19;4.68;;;4.07;;
75496;SDS011;64074;47.540;19.072;2023-08-12T13:33:23;4.70;;;4.30;;
75496;SDS011;64074;47.540;19.072;2023-08-12T13:36:26;4.38;;;3.65;;
75496;SDS011;64074;47.540;19.072;2023-08-12T13:39:30;5.22;;;4.30;;
75496;SDS011;64074;47.540;19.072;2023-08-12T13:42:33;4.53;;;3.60;;
75496;SDS011;64074;47.540;19.072;2023-08-12T13:45:36;6.70;;;4.45;;
75496;SDS011;64074;47.540;19.072;2023-08-12T13:48:39;4.65;;;4.20;;
75496;SDS011;64074;47.540;19.072;2023-08-12T13:51:44;4.57;;;4.25;;
75496;SDS011;64074;47.540;19.072;2023-08-12T13:54:48;4.45;;;4.03;;
75496;SDS011;64074;47.540;19.072;2023-08-12T13:57:51;5.43;;;4.87;;
75496;SDS011;64074;47.540;19.072;2023-08-12T14:00:54;4.35;;;4.00;;
75496;SDS011;64074;47.540;19.072;2023-08-12T14:03:57;4.40;;;4.00;;
75496;SDS011;64074;47.540;19.072;2023-08-12T14:07:00;4.00;;;3.70;;
75496;SDS011;64074;47.540;19.072;2023-08-12T14:10:07;4.32;;;4.03;;
75496;SDS011;64074;47.540;19.072;2023-08-12T14:13:11;5.67;;;4.20;;
75496;SDS011;64074;47.540;19.072;2023-08-12T14:16:14;4.53;;;4.13;;
75496;SDS011;64074;47.540;19.072;2023-08-12T14:19:17;4.40;;;4.00;;
75496;SDS011;64074;47.540;19.072;2023-08-12T14:22:23;4.72;;;4.13;;
75496;SDS011;64074;47.540;19.072;2023-08-12T14:25:26;4.60;;;4.30;;
75496;SDS011;64074;47.540;19.072;2023-08-12T14:28:29;4.10;;;3.80;;
75496;SDS011;64074;47.540;19.072;2023-08-12T14:31:33;4.68;;;4.20;;
75496;SDS011;64074;47.540;19.072;2023-08-12T14:34:36;5.25;;;4.85;;
75496;SDS011;64074;47.540;19.072;2023-08-12T14:37:40;5.80;;;3.67;;
75496;SDS011;64074;47.540;19.072;2023-08-12T14:40:46;4.80;;;4.32;;
75496;SDS011;64074;47.540;19.072;2023-08-12T14:43:50;4.03;;;3.73;;
75496;SDS011;64074;47.540;19.072;2023-08-12T14:46:53;4.57;;;3.90;;
75496;SDS011;64074;47.540;19.072;2023-08-12T14:49:56;4.45;;;4.13;;
75496;SDS011;64074;47.540;19.072;2023-08-12T14:53:00;3.53;;;3.22;;
75496;SDS011;64074;47.540;19.072;2023-08-12T14:56:03;3.50;;;3.20;;
75496;SDS011;64074;47.540;19.072;2023-08-12T14:59:07;3.87;;;3.50;;
75496;SDS011;64074;47.540;19.072;2023-08-12T15:02:10;4.65;;;3.30;;
75496;SDS011;64074;47.540;19.072;2023-08-12T15:05:13;4.05;;;3.65;;
75496;SDS011;64074;47.540;19.072;2023-08-12T15:08:16;3.75;;;3.33;;
75496;SDS011;64074;47.540;19.072;2023-08-12T15:11:19;4.65;;;3.55;;
75496;SDS011;64074;47.540;19.072;2023-08-12T15:14:22;4.17;;;3.67;;
75496;SDS011;64074;47.540;19.072;2023-08-12T15:17:25;4.30;;;3.72;;
75496;SDS011;64074;47.540;19.072;2023-08-12T15:20:28;4.07;;;3.67;;
75496;SDS011;64074;47.540;19.072;2023-08-12T15:23:34;3.42;;;3.08;;
75496;SDS011;64074;47.540;19.072;2023-08-12T15:26:37;4.07;;;3.53;;
75496;SDS011;64074;47.540;19.072;2023-08-12T15:29:41;4.37;;;3.97;;
75496;SDS011;64074;47.540;19.072;2023-08-12T15:32:44;6.20;;;4.30;;
75496;SDS011;64074;47.540;19.072;2023-08-12T15:35:47;4.72;;;3.80;;
75496;SDS011;64074;47.540;19.072;2023-08-12T15:38:51;3.38;;;3.10;;
75496;SDS011;64074;47.540;19.072;2023-08-12T15:41:55;3.40;;;3.10;;
75496;SDS011;64074;47.540;19.072;2023-08-12T15:44:58;4.00;;;3.60;;
75496;SDS011;64074;47.540;19.072;2023-08-12T15:48:02;3.80;;;3.38;;
75496;SDS011;64074;47.540;19.072;2023-08-12T15:51:06;5.43;;;3.72;;
75496;SDS011;64074;47.540;19.072;2023-08-12T15:54:10;4.93;;;3.28;;
75496;SDS011;64074;47.540;19.072;2023-08-12T15:57:13;4.45;;;3.63;;
75496;SDS011;64074;47.540;19.072;2023-08-12T16:00:17;4.27;;;3.30;;
75496;SDS011;64074;47.540;19.072;2023-08-12T16:03:20;3.90;;;3.30;;
75496;SDS011;64074;47.540;19.072;2023-08-12T16:06:23;5.22;;;3.40;;
75496;SDS011;64074;47.540;19.072;2023-08-12T16:09:27;4.30;;;3.25;;
75496;SDS011;64074;47.540;19.072;2023-08-12T16:12:30;4.03;;;3.63;;
75496;SDS011;64074;47.540;19.072;2023-08-12T16:15:33;3.67;;;3.37;;
75496;SDS011;64074;47.540;19.072;2023-08-12T16:18:36;3.55;;;3.25;;
75496;SDS011;64074;47.540;19.072;2023-08-12T16:21:39;7.00;;;3.33;;
75496;SDS011;64074;47.540;19.072;2023-08-12T16:24:42;3.90;;;3.08;;
75496;SDS011;64074;47.540;19.072;2023-08-12T16:27:46;3.53;;;3.22;;
75496;SDS011;64074;47.540;19.072;2023-08-12T16:30:50;7.30;;;4.97;;
75496;SDS011;64074;47.540;19.072;2023-08-12T16:33:53;5.03;;;3.35;;
75496;SDS011;64074;47.540;19.072;2023-08-12T16:36:55;4.03;;;3.63;;
75496;SDS011;64074;47.540;19.072;2023-08-12T16:40:19;5.90;;;4.25;;
75496;SDS011;64074;47.540;19.072;2023-08-12T16:43:22;8.13;;;4.13;;
75496;SDS011;64074;47.540;19.072;2023-08-12T16:46:26;12.67;;;8.17;;
75496;SDS011;64074;47.540;19.072;2023-08-12T16:49:29;25.85;;;14.80;;
75496;SDS011;64074;47.540;19.072;2023-08-12T16:52:32;5.82;;;4.57;;
75496;SDS011;64074;47.540;19.072;2023-08-12T16:55:36;12.60;;;8.07;;
75496;SDS011;64074;47.540;19.072;2023-08-12T16:58:39;11.27;;;7.05;;
75496;SDS011;64074;47.540;19.072;2023-08-12T17:01:45;4.40;;;3.67;;
75496;SDS011;64074;47.540;19.072;2023-08-12T17:04:50;4.13;;;3.00;;
75496;SDS011;64074;47.540;19.072;2023-08-12T17:07:53;4.90;;;3.05;;
75496;SDS011;64074;47.540;19.072;2023-08-12T17:10:55;5.72;;;3.17;;
75496;SDS011;64074;47.540;19.072;2023-08-12T17:13:58;5.13;;;4.00;;
75496;SDS011;64074;47.540;19.072;2023-08-12T17:17:01;4.27;;;3.57;;
75496;SDS011;64074;47.540;19.072;2023-08-12T17:20:06;3.63;;;3.33;;
75496;SDS011;64074;47.540;19.072;2023-08-12T17:23:10;4.85;;;3.35;;
75496;SDS011;64074;47.540;19.072;2023-08-12T17:26:13;4.25;;;3.85;;
75496;SDS011;64074;47.540;19.072;2023-08-12T17:29:16;4.40;;;3.70;;
75496;SDS011;64074;47.540;19.072;2023-08-12T17:32:19;3.93;;;3.50;;
75496;SDS011;64074;47.540;19.072;2023-08-12T17:35:22;4.43;;;3.70;;
75496;SDS011;64074;47.540;19.072;2023-08-12T17:38:25;3.90;;;3.50;;
75496;SDS011;64074;47.540;19.072;2023-08-12T17:41:28;4.25;;;3.63;;
75496;SDS011;64074;47.540;19.072;2023-08-12T17:44:31;4.63;;;3.72;;
75496;SDS011;64074;47.540;19.072;2023-08-12T17:47:34;4.90;;;3.50;;
75496;SDS011;64074;47.540;19.072;2023-08-12T17:50:37;4.38;;;3.53;;
75496;SDS011;64074;47.540;19.072;2023-08-12T17:53:43;4.80;;;3.70;;
75496;SDS011;64074;47.540;19.072;2023-08-12T17:56:47;3.60;;;3.30;;
75496;SDS011;64074;47.540;19.072;2023-08-12T17:59:50;4.15;;;3.75;;
75496;SDS011;64074;47.540;19.072;2023-08-12T18:02:54;5.93;;;3.30;;
75496;SDS011;64074;47.540;19.072;2023-08-12T18:05:57;3.72;;;3.30;;
75496;SDS011;64074;47.540;19.072;2023-08-12T18:09:00;5.25;;;3.80;;
75496;SDS011;64074;47.540;19.072;2023-08-12T18:12:03;5.13;;;3.38;;
75496;SDS011;64074;47.540;19.072;2023-08-12T18:15:06;5.47;;;5.00;;